Time;durP1;ratioP1;P1;durP2;ratioP2;P2;SDS_P1;SDS_P2;PMS_P1;PMS_P2;Temp;Humidity;BMP_temperature;BMP_pressure;BME280_temperature;BME280_humidity;BME280_pressure;Samples;Min_cycle;Max_cycle;Signal;HPM_P1;HPM_P2
2022/06/03 00:00:13;;;;;;;0.30;0.30;;;9.70;99.90;;;;;;5062938;28;20458;-78
2022/06/03 00:03:16;;;;;;;0.00;0.00;;;9.70;99.90;;;;;;5053870;28;20114;-82
2022/06/03 00:05:48;;;;;;;0.10;0.10;;;9.60;99.90;;;;;;5053957;28;20037;-82
2022/06/03 00:08:52;;;;;;;0.15;0.15;;;9.60;99.90;;;;;;5054462;28;20464;-78
2022/06/03 00:11:49;;;;;;;0.10;0.10;;;9.50;99.90;;;;;;5054600;28;20044;-78
2022/06/03 00:14:53;;;;;;;0.20;0.20;;;9.50;99.90;;;;;;5097259;28;20059;-82
2022/06/03 00:17:20;;;;;;;0.15;0.10;;;9.40;99.90;;;;;;5090769;28;20493;-82
2022/06/03 00:20:13;;;;;;;0.10;0.10;;;9.40;99.90;;;;;;5090277;28;20128;-78
2022/06/03 00:23:02;;;;;;;0.10;0.10;;;9.40;99.90;;;;;;5090152;28;20094;-82
2022/06/03 00:26:00;;;;;;;0.00;0.00;;;9.30;99.90;;;;;;5053954;28;20060;-78
2022/06/03 00:28:33;;;;;;;0.17;0.17;;;9.30;99.90;;;;;;5087534;28;20186;-78
2022/06/03 00:31:31;;;;;;;0.10;0.10;;;9.20;99.90;;;;;;5087002;28;20044;-78
2022/06/03 00:34:16;;;;;;;0.13;0.10;;;9.10;99.90;;;;;;5090369;28;20386;-82
2022/06/03 00:36:57;;;;;;;0.25;0.25;;;9.10;99.90;;;;;;5090052;28;20071;-78
2022/06/03 00:39:50;;;;;;;0.40;0.20;;;9.10;99.90;;;;;;5106931;28;20517;-78
2022/06/03 00:42:43;;;;;;;0.20;0.20;;;9.10;99.90;;;;;;5089976;28;20589;-82
2022/06/03 00:45:48;;;;;;;0.20;0.10;;;9.00;99.90;;;;;;5101350;28;20039;-78
2022/06/03 00:48:30;;;;;;;0.00;0.00;;;9.00;99.90;;;;;;5073596;28;20149;-78
2022/06/03 00:51:22;;;;;;;0.17;0.17;;;8.90;99.90;;;;;;5089354;28;20824;-82
2022/06/03 00:54:07;;;;;;;0.20;0.20;;;9.00;99.90;;;;;;5089764;28;20455;-78
2022/06/03 00:57:00;;;;;;;0.10;0.10;;;8.90;99.90;;;;;;5089671;28;20043;-78
2022/06/03 00:59:50;;;;;;;0.10;0.10;;;8.90;99.90;;;;;;5089753;28;20129;-78
2022/06/03 01:02:22;;;;;;;0.10;0.10;;;8.90;99.90;;;;;;5089860;28;20041;-78
2022/06/03 01:05:11;;;;;;;0.10;0.10;;;8.90;99.90;;;;;;5089741;28;20063;-82
2022/06/03 01:08:03;;;;;;;0.08;0.08;;;8.90;99.90;;;;;;5072958;28;20397;-83
2022/06/03 01:10:50;;;;;;;0.30;0.30;;;8.90;99.90;;;;;;5073173;28;20043;-82
2022/06/03 01:13:28;;;;;;;0.10;0.10;;;8.80;99.90;;;;;;5089880;28;20084;-78
2022/06/03 01:16:16;;;;;;;0.10;0.10;;;8.80;99.90;;;;;;5072732;28;20035;-78
2022/06/03 01:19:07;;;;;;;0.10;0.10;;;8.80;99.90;;;;;;5105969;28;20435;-82
2022/06/03 01:22:05;;;;;;;0.20;0.15;;;8.70;99.90;;;;;;5089801;28;20044;-78
2022/06/03 01:24:44;;;;;;;0.10;0.10;;;8.70;99.90;;;;;;5089757;28;20488;-82
2022/06/03 01:27:58;;;;;;;0.10;0.10;;;8.70;99.90;;;;;;5089765;28;20033;-78
2022/06/03 01:30:39;;;;;;;0.10;0.10;;;8.60;99.90;;;;;;5028813;28;20084;-78
2022/06/03 01:33:24;;;;;;;0.10;0.10;;;8.60;99.90;;;;;;5028875;28;20045;-82
2022/06/03 01:35:51;;;;;;;0.25;0.20;;;8.60;99.90;;;;;;5087177;28;20048;-82
2022/06/03 01:38:32;;;;;;;0.43;0.30;;;8.50;99.90;;;;;;5079755;28;20045;-79
2022/06/03 01:41:12;;;;;;;0.28;0.28;;;8.50;99.90;;;;;;5089361;28;20040;-78
2022/06/03 01:43:50;;;;;;;0.20;0.20;;;8.50;99.90;;;;;;5085631;28;20485;-78
2022/06/03 01:46:25;;;;;;;0.10;0.10;;;8.40;99.90;;;;;;5085527;28;20111;-82
2022/06/03 01:49:11;;;;;;;0.32;0.30;;;8.50;99.90;;;;;;5068793;28;20175;-78
2022/06/03 01:51:51;;;;;;;0.20;0.20;;;8.40;99.90;;;;;;5085843;28;20036;-78
2022/06/03 01:54:18;;;;;;;0.25;0.25;;;8.40;99.90;;;;;;5069132;28;20397;-78
2022/06/03 01:57:13;;;;;;;0.20;0.20;;;8.30;99.90;;;;;;5068686;28;20078;-82
2022/06/03 01:59:52;;;;;;;0.20;0.20;;;8.40;99.90;;;;;;5069043;28;20071;-78
2022/06/03 02:02:43;;;;;;;0.10;0.10;;;8.30;99.90;;;;;;5085339;28;20052;-78
2022/06/03 02:05:42;;;;;;;0.05;0.05;;;8.30;99.90;;;;;;5085755;28;20087;-78
2022/06/03 02:08:18;;;;;;;0.13;0.13;;;8.30;99.90;;;;;;5068888;28;20045;-78
2022/06/03 02:10:54;;;;;;;0.10;0.10;;;8.20;99.90;;;;;;5085262;28;20041;-78
2022/06/03 02:13:43;;;;;;;0.10;0.10;;;8.30;99.90;;;;;;5069324;28;20053;-78
2022/06/03 02:16:32;;;;;;;0.22;0.22;;;8.20;99.90;;;;;;5068784;28;20486;-78
2022/06/03 02:19:33;;;;;;;0.10;0.10;;;8.20;99.90;;;;;;5068956;28;20045;-79
2022/06/03 02:22:30;;;;;;;0.20;0.20;;;8.20;99.90;;;;;;5085249;28;20048;-82
2022/06/03 02:25:11;;;;;;;;;;;8.20;99.90;;;;;;5085866;28;20127;-82
2022/06/03 02:28:05;;;;;;;0.17;0.17;;;8.20;99.90;;;;;;5068913;28;19970;-83
2022/06/03 02:31:01;;;;;;;0.35;0.30;;;8.10;99.90;;;;;;5068793;28;20041;-78
2022/06/03 02:34:01;;;;;;;0.10;0.10;;;8.10;99.90;;;;;;5085476;28;20076;-82
2022/06/03 02:36:49;;;;;;;0.20;0.20;;;8.10;99.90;;;;;;5085294;28;20128;-82
2022/06/03 02:39:37;;;;;;;0.20;0.20;;;8.10;99.90;;;;;;5085320;28;20041;-78
2022/06/03 02:42:34;;;;;;;0.38;0.38;;;8.10;99.90;;;;;;5089590;28;20063;-78
2022/06/03 02:45:18;;;;;;;0.10;0.10;;;8.10;99.90;;;;;;5104985;28;20098;-82
2022/06/03 02:48:15;;;;;;;0.22;0.17;;;8.10;99.90;;;;;;5088577;28;20044;-78
2022/06/03 02:51:10;;;;;;;0.20;0.20;;;8.00;99.90;;;;;;5090541;28;20037;-82
2022/06/03 02:54:15;;;;;;;0.32;0.20;;;8.00;99.90;;;;;;5092120;28;20041;-82
2022/06/03 02:56:42;;;;;;;0.00;0.00;;;8.00;99.90;;;;;;5092334;28;20044;-78
2022/06/03 02:59:27;;;;;;;0.10;0.10;;;8.00;99.90;;;;;;5091628;28;20040;-78
2022/06/03 03:02:15;;;;;;;0.10;0.10;;;8.00;99.90;;;;;;5066869;28;20048;-82
2022/06/03 03:05:07;;;;;;;0.10;0.10;;;8.00;99.90;;;;;;5072176;28;20794;-82
2022/06/03 03:07:47;;;;;;;0.10;0.10;;;7.90;99.90;;;;;;5072255;28;20048;-78
2022/06/03 03:10:43;;;;;;;0.00;0.00;;;8.00;99.90;;;;;;5091218;28;20040;-78
2022/06/03 03:13:35;;;;;;;0.20;0.20;;;8.00;99.90;;;;;;5091230;28;20407;-78
2022/06/03 03:16:20;;;;;;;0.20;0.20;;;7.90;99.90;;;;;;5091843;28;20083;-81
2022/06/03 03:19:24;;;;;;;0.28;0.28;;;7.90;99.90;;;;;;5108800;28;20127;-82
2022/06/03 03:21:59;;;;;;;0.20;0.20;;;7.90;99.90;;;;;;5091934;28;20049;-78
2022/06/03 03:24:53;;;;;;;0.20;0.20;;;7.90;99.90;;;;;;5099765;28;20190;-82
2022/06/03 03:27:44;;;;;;;0.17;0.17;;;8.00;99.90;;;;;;5047343;28;20049;-82
2022/06/03 03:30:16;;;;;;;0.17;0.17;;;8.00;99.90;;;;;;5071183;28;20041;-78
2022/06/03 03:32:52;;;;;;;0.20;0.20;;;8.00;99.90;;;;;;5088193;28;20506;-78
2022/06/03 03:35:56;;;;;;;0.10;0.10;;;8.00;99.90;;;;;;5071357;28;20130;-82
2022/06/03 03:38:55;;;;;;;0.10;0.10;;;8.00;99.90;;;;;;5071384;28;20076;-82
2022/06/03 03:41:34;;;;;;;0.10;0.10;;;8.00;99.90;;;;;;5082885;28;20040;-78
2022/06/03 03:44:35;;;;;;;0.13;0.13;;;8.00;99.90;;;;;;5091033;28;20128;-78
2022/06/03 03:47:28;;;;;;;0.10;0.10;;;8.10;99.90;;;;;;5090933;28;20037;-82
2022/06/03 03:50:10;;;;;;;0.20;0.20;;;8.10;99.90;;;;;;5085933;28;20116;-82
2022/06/03 03:52:47;;;;;;;0.17;0.17;;;8.10;99.90;;;;;;5070902;28;20088;-78
2022/06/03 03:55:32;;;;;;;0.55;0.40;;;8.10;99.90;;;;;;5087308;28;20128;-82
2022/06/03 03:58:02;;;;;;;0.17;0.17;;;8.10;99.90;;;;;;5070830;28;20060;-82
2022/06/03 04:00:47;;;;;;;0.20;0.20;;;8.20;99.90;;;;;;5070282;28;20045;-78
2022/06/03 04:03:28;;;;;;;0.20;0.20;;;8.30;99.90;;;;;;5070742;28;20267;-82
2022/06/03 04:06:26;;;;;;;0.15;0.15;;;8.40;99.90;;;;;;5087601;28;20044;-82
2022/06/03 04:09:10;;;;;;;0.32;0.32;;;8.40;99.90;;;;;;5071163;28;20486;-77
2022/06/03 04:12:15;;;;;;;0.10;0.10;;;8.50;99.90;;;;;;5070846;28;20033;-82
2022/06/03 04:15:03;;;;;;;0.10;0.10;;;8.60;99.90;;;;;;5071248;28;20059;-81
2022/06/03 04:18:15;;;;;;;0.10;0.10;;;8.60;99.90;;;;;;5087291;28;20048;-78
2022/06/03 04:20:59;;;;;;;0.10;0.10;;;8.70;99.90;;;;;;5087487;28;20509;-82
2022/06/03 04:23:57;;;;;;;0.10;0.10;;;8.70;99.90;;;;;;5050488;28;20835;-83
2022/06/03 04:27:02;;;;;;;0.13;0.13;;;8.80;99.90;;;;;;5050538;28;20400;-78
2022/06/03 04:29:54;;;;;;;0.43;0.30;;;8.90;99.90;;;;;;5050296;28;20442;-79
2022/06/03 04:32:39;;;;;;;0.20;0.20;;;9.00;99.90;;;;;;5050084;28;20133;-78
2022/06/03 04:35:41;;;;;;;0.10;0.10;;;9.10;99.90;;;;;;5050102;28;20112;-82
2022/06/03 04:38:50;;;;;;;0.22;0.22;;;9.20;99.90;;;;;;5084813;28;20044;-82
2022/06/03 04:41:26;;;;;;;0.32;0.32;;;9.20;99.90;;;;;;5090155;28;20083;-82
2022/06/03 04:44:13;;;;;;;;;;;9.30;99.90;;;;;;5090475;28;20056;-82
2022/06/03 04:47:16;;;;;;;0.20;0.20;;;9.30;99.90;;;;;;5038285;28;19923;-78
2022/06/03 04:50:20;;;;;;;0.10;0.10;;;9.40;99.90;;;;;;5070661;28;20410;-78
2022/06/03 04:53:15;;;;;;;0.10;0.10;;;9.40;99.90;;;;;;5087155;28;20084;-80
2022/06/03 04:56:00;;;;;;;0.20;0.20;;;9.50;99.90;;;;;;5069854;28;20037;-83
2022/06/03 04:58:35;;;;;;;0.10;0.10;;;9.50;99.90;;;;;;5069667;28;20493;-78
2022/06/03 05:01:21;;;;;;;0.10;0.10;;;9.60;99.90;;;;;;5087304;28;20044;-78
2022/06/03 05:04:18;;;;;;;0.47;0.40;;;9.70;99.90;;;;;;5090105;28;20079;-83
2022/06/03 05:06:47;;;;;;;0.43;0.20;;;9.70;99.90;;;;;;5089866;28;20520;-78
2022/06/03 05:09:37;;;;;;;0.17;0.15;;;9.80;99.90;;;;;;5073256;28;20041;-83
2022/06/03 05:12:40;;;;;;;0.45;0.45;;;9.90;99.90;;;;;;5069025;28;20493;-83
2022/06/03 05:15:39;;;;;;;0.43;0.38;;;9.90;99.90;;;;;;5050077;28;20037;-78
2022/06/03 05:18:24;;;;;;;0.10;0.10;;;9.90;99.90;;;;;;5082113;28;20036;-78
2022/06/03 05:21:17;;;;;;;0.10;0.10;;;10.00;99.90;;;;;;5069768;28;20038;-83
2022/06/03 05:23:52;;;;;;;0.60;0.55;;;10.10;99.90;;;;;;5086237;28;20436;-83
2022/06/03 05:26:55;;;;;;;0.10;0.10;;;10.10;99.90;;;;;;5069004;28;20037;-79
2022/06/03 05:29:44;;;;;;;0.30;0.30;;;10.20;99.90;;;;;;5085579;28;20044;-78
2022/06/03 05:32:36;;;;;;;0.38;0.35;;;10.20;99.90;;;;;;5069491;28;20041;-79
2022/06/03 05:35:21;;;;;;;0.10;0.10;;;10.30;99.90;;;;;;5069427;28;20040;-79
2022/06/03 05:38:27;;;;;;;0.20;0.20;;;10.40;99.90;;;;;;5069442;28;20077;-78
2022/06/03 05:44:35;;;;;;;0.15;0.15;;;10.70;99.90;;;;;;5065594;28;20156;-82
2022/06/03 05:47:15;;;;;;;0.10;0.10;;;10.80;99.90;;;;;;5061605;28;20045;-79
2022/06/03 05:49:50;;;;;;;0.20;0.20;;;10.90;99.90;;;;;;5043974;28;20619;-79
2022/06/03 05:52:44;;;;;;;0.30;0.30;;;11.00;99.90;;;;;;5065462;28;20148;-83
2022/06/03 05:55:36;;;;;;;0.10;0.10;;;11.10;99.90;;;;;;5065802;28;20502;-79
2022/06/03 05:58:48;;;;;;;0.43;0.28;;;11.20;99.90;;;;;;5065839;28;20046;-83
2022/06/03 06:01:41;;;;;;;0.30;0.20;;;11.30;99.90;;;;;;5055152;28;20077;-83
2022/06/03 06:04:36;;;;;;;0.13;0.13;;;11.50;99.90;;;;;;5053276;28;20045;-79
2022/06/03 06:07:23;;;;;;;0.40;0.32;;;11.50;99.90;;;;;;5044056;28;20405;-79
2022/06/03 06:09:56;;;;;;;0.30;0.30;;;11.70;99.90;;;;;;5048850;28;20056;-83
2022/06/03 06:12:44;;;;;;;0.20;0.20;;;11.80;99.90;;;;;;5065457;28;20049;-83
2022/06/03 06:15:37;;;;;;;0.10;0.10;;;11.90;99.90;;;;;;5049191;28;20494;-78
2022/06/03 06:18:22;;;;;;;0.38;0.30;;;12.10;99.90;;;;;;5065464;28;20508;-83
2022/06/03 06:21:02;;;;;;;0.20;0.20;;;12.20;99.90;;;;;;5048747;28;20441;-83
2022/06/03 06:24:04;;;;;;;0.50;0.45;;;12.20;99.90;;;;;;5066030;28;20051;-83
2022/06/03 06:27:05;;;;;;;0.73;0.22;;;12.40;99.90;;;;;;5064059;28;20046;-79
2022/06/03 06:29:48;;;;;;;0.57;0.30;;;12.50;99.90;;;;;;5055113;28;20041;-79
2022/06/03 06:32:41;;;;;;;0.20;0.20;;;12.70;99.90;;;;;;5069291;28;20049;-84
2022/06/03 06:35:32;;;;;;;0.50;0.20;;;12.70;99.90;;;;;;5069339;28;20501;-79
2022/06/03 06:38:20;;;;;;;0.13;0.10;;;12.90;99.90;;;;;;5062664;28;20041;-83
2022/06/03 06:41:14;;;;;;;0.20;0.20;;;13.00;99.90;;;;;;5049037;28;20045;-79
2022/06/03 06:43:59;;;;;;;0.10;0.10;;;13.10;99.90;;;;;;5066796;28;20049;-79
2022/06/03 06:46:42;;;;;;;0.88;0.20;;;13.30;99.90;;;;;;5071182;28;20036;-79
2022/06/03 06:49:50;;;;;;;0.20;0.20;;;13.40;99.90;;;;;;5072726;28;20037;-84
2022/06/03 06:52:49;;;;;;;0.10;0.10;;;13.50;99.90;;;;;;4981307;28;20145;-80
2022/06/03 06:55:23;;;;;;;0.40;0.25;;;13.60;99.90;;;;;;5096627;28;20171;-79
2022/06/03 06:57:54;;;;;;;0.20;0.20;;;13.80;99.90;;;;;;5072761;28;20486;-84
2022/06/03 07:00:30;;;;;;;0.25;0.20;;;13.80;99.90;;;;;;5072676;28;20043;-85
2022/06/03 07:03:16;;;;;;;0.30;0.17;;;14.00;99.90;;;;;;5088829;28;20387;-80
2022/06/03 07:06:10;;;;;;;0.47;0.30;;;14.10;99.90;;;;;;5071868;28;20119;-85
2022/06/03 07:08:50;;;;;;;0.57;0.28;;;14.30;99.90;;;;;;5087857;28;20098;-84
2022/06/03 07:11:50;;;;;;;0.20;0.20;;;14.40;99.90;;;;;;5072402;28;20037;-84
2022/06/03 07:14:28;;;;;;;0.20;0.20;;;14.50;99.90;;;;;;5077801;28;20045;-85
2022/06/03 07:20:08;;;;;;;0.10;0.10;;;14.70;99.90;;;;;;5099390;28;20040;-80
2022/06/03 07:22:55;;;;;;;0.10;0.10;;;14.80;99.90;;;;;;5090188;28;20131;-80
2022/06/03 07:25:44;;;;;;;0.15;0.15;;;14.90;99.90;;;;;;5072666;28;20040;-84
2022/06/03 07:28:17;;;;;;;0.10;0.10;;;15.10;99.90;;;;;;5088334;28;20045;-85
2022/06/03 07:31:01;;;;;;;0.10;0.10;;;15.20;99.90;;;;;;5071537;28;20037;-85
2022/06/03 07:33:31;;;;;;;0.10;0.10;;;15.30;99.90;;;;;;5082832;28;20497;-80
2022/06/03 07:36:06;;;;;;;0.10;0.10;;;15.40;99.90;;;;;;5069855;28;20560;-85
2022/06/03 07:39:02;;;;;;;;;;;15.50;99.90;;;;;;5052170;28;20084;-79
2022/06/03 07:41:48;;;;;;;0.25;0.15;;;15.60;99.90;;;;;;4985650;28;19918;-84
2022/06/03 07:44:34;;;;;;;0.20;0.10;;;15.80;99.90;;;;;;5050944;28;20103;-78
2022/06/03 07:47:06;;;;;;;0.10;0.10;;;15.80;99.90;;;;;;5051709;28;20549;-78
2022/06/03 07:49:38;;;;;;;0.10;0.10;;;15.90;99.90;;;;;;5063108;28;20042;-83
2022/06/03 07:52:12;;;;;;;0.20;0.20;;;16.10;99.90;;;;;;5031757;28;20411;-88
2022/06/03 07:54:43;;;;;;;0.98;0.45;;;16.30;99.90;;;;;;5051840;28;20041;-88
2022/06/03 07:57:19;;;;;;;0.00;0.00;;;16.40;99.90;;;;;;5051499;28;20044;-85
2022/06/03 07:59:46;;;;;;;0.17;0.17;;;16.50;99.90;;;;;;5051361;28;20134;-86
2022/06/03 08:02:17;;;;;;;0.22;0.10;;;16.60;99.90;;;;;;5068511;28;20079;-86
2022/06/03 08:04:47;;;;;;;0.13;0.13;;;16.80;99.90;;;;;;5067691;28;20045;-86
2022/06/03 08:13:13;;;;;;;0.20;0.20;;;17.20;99.90;;;;;;5068296;28;20045;-86
2022/06/03 08:15:48;;;;;;;0.03;0.03;;;17.30;99.90;;;;;;5035070;28;20034;-86
2022/06/03 08:18:18;;;;;;;0.20;0.20;;;17.30;99.90;;;;;;5051365;28;20561;-86
2022/06/03 08:20:57;;;;;;;0.05;0.05;;;17.40;99.90;;;;;;5051068;28;20120;-85
2022/06/03 08:23:25;;;;;;;0.15;0.15;;;17.50;99.90;;;;;;5051603;28;20457;-85
2022/06/03 08:25:56;;;;;;;0.15;0.03;;;17.50;99.90;;;;;;5050807;28;20041;-86
2022/06/03 08:28:27;;;;;;;0.20;0.20;;;17.70;99.90;;;;;;5051691;28;20039;-87
2022/06/03 08:30:56;;;;;;;0.30;0.20;;;17.90;99.90;;;;;;5050665;28;20041;-87
2022/06/03 08:33:37;;;;;;;0.10;0.10;;;18.00;99.90;;;;;;5034509;28;20041;-87
2022/06/03 08:36:05;;;;;;;0.08;0.08;;;18.20;99.90;;;;;;5050890;28;20057;-87
2022/06/03 08:38:44;;;;;;;0.10;0.10;;;18.20;99.90;;;;;;5067395;28;20049;-89
2022/06/03 08:41:38;;;;;;;0.30;0.20;;;18.40;99.90;;;;;;5051105;28;20045;-85
2022/06/03 08:44:14;;;;;;;0.30;0.10;;;18.40;99.90;;;;;;5089182;28;20064;-90
2022/06/03 08:46:49;;;;;;;0.28;0.17;;;18.60;99.90;;;;;;5090778;28;20135;-89
2022/06/03 08:49:23;;;;;;;0.13;0.13;;;18.70;99.90;;;;;;5088731;28;20036;-86
2022/06/03 08:51:56;;;;;;;0.83;0.20;;;18.80;99.90;;;;;;5071073;28;20041;-90
2022/06/03 08:54:30;;;;;;;0.20;0.20;;;18.90;99.90;;;;;;5071335;28;20067;-86
2022/06/03 08:57:05;;;;;;;0.20;0.13;;;19.00;99.90;;;;;;5070677;28;20045;-89
2022/06/03 08:59:38;;;;;;;0.17;0.17;;;19.10;99.90;;;;;;5071094;28;20544;-93
2022/06/03 09:02:27;;;;;;;0.15;0.15;;;19.10;99.90;;;;;;5071560;28;20100;-92
2022/06/03 09:05:06;;;;;;;0.35;0.28;;;19.20;99.90;;;;;;5071290;28;20041;-86
2022/06/03 09:07:48;;;;;;;0.10;0.10;;;19.30;99.90;;;;;;5070894;28;20041;-85
2022/06/03 09:10:53;;;;;;;0.30;0.20;;;19.50;99.90;;;;;;5084090;28;20443;-95
2022/06/03 09:13:31;;;;;;;0.20;0.20;;;19.70;99.90;;;;;;5053121;28;20048;-93
2022/06/03 09:16:00;;;;;;;0.25;0.25;;;19.70;99.90;;;;;;5090596;28;20071;-93
2022/06/03 09:18:59;;;;;;;0.30;0.20;;;19.80;99.90;;;;;;5091253;28;20036;-93
2022/06/03 09:21:33;;;;;;;0.47;0.25;;;19.90;99.50;;;;;;5072515;28;20159;-85
2022/06/03 09:24:32;;;;;;;0.32;0.20;;;20.00;99.90;;;;;;5070358;28;20052;-84
2022/06/03 09:27:02;;;;;;;0.10;0.10;;;20.10;98.90;;;;;;5054174;28;20045;-93
2022/06/03 09:29:30;;;;;;;0.28;0.28;;;20.20;99.90;;;;;;5079475;28;20094;-90
2022/06/03 09:32:03;;;;;;;0.10;0.10;;;20.40;99.90;;;;;;5059630;28;20128;-84
2022/06/03 09:34:35;;;;;;;0.20;0.20;;;20.50;99.90;;;;;;5071638;28;20045;-92
2022/06/03 09:37:03;;;;;;;0.40;0.40;;;20.60;99.90;;;;;;5070836;28;20043;-85
2022/06/03 09:39:32;;;;;;;0.22;0.20;;;20.70;99.90;;;;;;5053340;28;20516;-86
2022/06/03 09:41:59;;;;;;;0.32;0.30;;;20.70;99.90;;;;;;5053815;28;20434;-85
2022/06/03 09:44:27;;;;;;;0.10;0.10;;;20.80;98.70;;;;;;5069701;28;20410;-85
2022/06/03 09:47:03;;;;;;;0.13;0.13;;;20.80;98.90;;;;;;5053196;28;20037;-84
2022/06/03 09:49:32;;;;;;;0.10;0.10;;;20.90;99.90;;;;;;5070053;28;20052;-84
2022/06/03 09:52:00;;;;;;;0.35;0.20;;;21.00;99.90;;;;;;5038088;28;20044;-91
2022/06/03 09:54:40;;;;;;;0.30;0.30;;;21.00;99.10;;;;;;5054080;28;20045;-92
2022/06/03 09:57:12;;;;;;;0.20;0.20;;;21.10;97.90;;;;;;5070786;28;20498;-89
2022/06/03 09:59:45;;;;;;;0.13;0.13;;;21.10;97.00;;;;;;5069894;28;20037;-89
2022/06/03 10:02:11;;;;;;;0.10;0.10;;;21.10;98.00;;;;;;5070409;28;20033;-85
2022/06/03 10:04:38;;;;;;;0.50;0.40;;;21.20;99.50;;;;;;5053450;28;20493;-85
2022/06/03 10:07:05;;;;;;;0.25;0.25;;;21.20;97.80;;;;;;5053420;28;20052;-90
2022/06/03 10:12:49;;;;;;;0.20;0.20;;;21.40;98.70;;;;;;5072378;28;20044;-89
2022/06/03 10:15:47;;;;;;;0.20;0.20;;;21.40;95.70;;;;;;5058097;28;20069;-89
2022/06/03 10:18:28;;;;;;;0.30;0.28;;;21.50;97.60;;;;;;5069744;28;20040;-86
2022/06/03 10:20:58;;;;;;;0.32;0.32;;;21.60;96.10;;;;;;5085939;28;20036;-87
2022/06/03 10:23:35;;;;;;;0.20;0.20;;;21.60;97.50;;;;;;5069646;28;20083;-90
2022/06/03 10:26:02;;;;;;;0.57;0.40;;;21.70;96.50;;;;;;5086894;28;20131;-90
2022/06/03 10:28:35;;;;;;;0.52;0.30;;;21.70;97.10;;;;;;5054222;28;20040;-92
2022/06/03 10:31:11;;;;;;;0.20;0.15;;;21.80;96.90;;;;;;5070105;28;20029;-93
2022/06/03 10:33:38;;;;;;;0.32;0.30;;;21.90;96.70;;;;;;5086606;28;20041;-92
2022/06/03 10:36:06;;;;;;;0.57;0.28;;;21.70;96.40;;;;;;5065686;28;20037;-92
2022/06/03 10:38:36;;;;;;;0.28;0.28;;;21.40;95.60;;;;;;5077073;28;20041;-94
2022/06/03 10:41:09;;;;;;;0.13;0.13;;;21.50;96.70;;;;;;5059979;28;20048;-95
2022/06/03 10:43:37;;;;;;;0.25;0.25;;;21.70;95.70;;;;;;5078325;28;20086;-91
2022/06/03 10:46:15;;;;;;;0.22;0.22;;;21.60;96.50;;;;;;5042158;28;20124;-86
2022/06/03 10:48:44;;;;;;;0.20;0.20;;;21.90;96.50;;;;;;5066902;28;20040;-90
2022/06/03 10:51:16;;;;;;;0.30;0.30;;;21.80;96.50;;;;;;5058309;28;20490;-92
2022/06/03 11:02:03;;;;;;;0.20;0.20;;;21.70;94.90;;;;;;5066679;28;20045;-88
2022/06/03 11:04:39;;;;;;;0.38;0.28;;;21.70;94.80;;;;;;5063759;28;20037;-86
2022/06/03 11:07:22;;;;;;;0.08;0.08;;;21.60;94.20;;;;;;5066112;28;20043;-88
2022/06/03 11:10:01;;;;;;;0.10;0.10;;;21.50;93.00;;;;;;5077553;28;20048;-87
2022/06/03 11:12:29;;;;;;;0.38;0.38;;;21.50;93.40;;;;;;5057640;28;20098;-90
2022/06/03 11:14:57;;;;;;;0.57;0.40;;;21.60;94.40;;;;;;5056262;28;20033;-90
2022/06/03 11:17:35;;;;;;;0.30;0.30;;;21.60;95.10;;;;;;5063532;28;20110;-88
2022/06/03 11:20:32;;;;;;;0.52;0.30;;;21.80;94.30;;;;;;5084590;28;20059;-89
2022/06/03 11:22:59;;;;;;;0.52;0.30;;;21.80;92.50;;;;;;5075598;28;20047;-89
2022/06/03 11:25:29;;;;;;;0.38;0.30;;;21.70;94.70;;;;;;5071840;28;20045;-88
2022/06/03 11:27:58;;;;;;;0.20;0.20;;;21.80;93.50;;;;;;5080976;28;20033;-86
2022/06/03 11:30:44;;;;;;;0.30;0.30;;;21.90;93.70;;;;;;5083414;28;20049;-86
2022/06/03 11:33:28;;;;;;;0.30;0.20;;;22.00;92.70;;;;;;5088778;28;20067;-86
2022/06/03 11:36:03;;;;;;;0.20;0.20;;;22.20;94.00;;;;;;5055972;28;20084;-88
2022/06/03 11:38:41;;;;;;;0.28;0.28;;;22.40;94.20;;;;;;5056128;28;20041;-87
2022/06/03 11:41:16;;;;;;;0.38;0.30;;;22.50;93.70;;;;;;5055363;28;20127;-86
2022/06/03 11:43:54;;;;;;;0.20;0.20;;;22.50;92.40;;;;;;5058972;28;20509;-90
2022/06/03 11:46:31;;;;;;;0.20;0.20;;;22.50;93.40;;;;;;5065779;28;20052;-90
2022/06/03 11:48:58;;;;;;;0.40;0.30;;;22.60;93.30;;;;;;5051850;28;20073;-89
2022/06/03 11:51:25;;;;;;;0.30;0.30;;;22.60;92.50;;;;;;5035672;28;20100;-87
2022/06/03 11:53:52;;;;;;;0.28;0.28;;;22.60;92.40;;;;;;5049944;28;20103;-90
2022/06/03 11:56:23;;;;;;;0.40;0.30;;;22.50;92.00;;;;;;5066173;28;20045;-86
2022/06/03 11:59:14;;;;;;;0.25;0.20;;;22.20;92.30;;;;;;5041636;28;20065;-86
2022/06/03 12:02:08;;;;;;;0.20;0.20;;;22.00;91.30;;;;;;5059819;28;20042;-89
2022/06/03 12:04:44;;;;;;;0.30;0.30;;;22.00;91.90;;;;;;5044376;28;20045;-86
2022/06/03 12:07:28;;;;;;;0.32;0.32;;;22.10;91.20;;;;;;5059325;28;20044;-87
2022/06/03 12:10:06;;;;;;;0.25;0.22;;;21.80;91.20;;;;;;5050326;28;20082;-86
2022/06/03 12:15:42;;;;;;;0.45;0.40;;;21.90;93.10;;;;;;5076960;28;20136;-90
2022/06/03 12:18:11;;;;;;;0.10;0.10;;;21.90;92.30;;;;;;5043288;28;20103;-86
2022/06/03 12:20:44;;;;;;;0.20;0.20;;;21.70;91.30;;;;;;5049857;28;20049;-87
2022/06/03 12:23:13;;;;;;;0.22;0.22;;;21.70;92.30;;;;;;5056332;28;20407;-86
2022/06/03 12:25:40;;;;;;;0.28;0.25;;;21.60;92.30;;;;;;5053923;28;20036;-89
2022/06/03 12:28:18;;;;;;;0.30;0.30;;;21.70;92.50;;;;;;5048337;28;20046;-86
2022/06/03 12:30:48;;;;;;;0.20;0.20;;;21.80;91.40;;;;;;5048031;28;20137;-86
2022/06/03 12:33:49;;;;;;;0.20;0.20;;;21.90;92.50;;;;;;5057020;28;20049;-86
2022/06/03 12:37:00;;;;;;;0.20;0.20;;;22.20;92.90;;;;;;5047615;28;20088;-86
2022/06/03 12:39:31;;;;;;;0.17;0.17;;;22.30;91.60;;;;;;4995116;28;20052;-86
2022/06/03 12:42:32;;;;;;;0.32;0.30;;;22.30;91.40;;;;;;5058102;28;20060;-90
2022/06/03 12:45:03;;;;;;;0.20;0.20;;;22.10;90.50;;;;;;5056895;28;20511;-86
2022/06/03 12:47:35;;;;;;;0.20;0.20;;;22.10;91.40;;;;;;5086524;28;20509;-83
2022/06/03 12:50:05;;;;;;;0.10;0.10;;;22.20;90.40;;;;;;5070905;28;20406;-85
2022/06/03 12:52:31;;;;;;;0.10;0.10;;;22.10;91.00;;;;;;5070262;28;20063;-85
2022/06/03 12:55:23;;;;;;;0.30;0.30;;;22.20;91.00;;;;;;5071060;28;20041;-90
2022/06/03 12:58:01;;;;;;;0.20;0.20;;;22.20;90.20;;;;;;5070726;28;20045;-91
2022/06/03 13:00:32;;;;;;;0.20;0.20;;;22.20;90.20;;;;;;5087723;28;20128;-89
2022/06/03 13:03:06;;;;;;;0.30;0.20;;;22.30;91.00;;;;;;5071474;28;20045;-92
2022/06/03 13:05:48;;;;;;;0.15;0.15;;;22.30;90.50;;;;;;5087423;28;20032;-85
2022/06/03 13:08:26;;;;;;;0.08;0.08;;;22.30;88.50;;;;;;5070612;28;20131;-93
2022/06/03 13:11:32;;;;;;;0.63;0.50;;;22.00;85.90;;;;;;5071154;28;20063;-90
2022/06/03 13:13:59;;;;;;;0.25;0.20;;;22.00;88.30;;;;;;5051174;28;20045;-88
2022/06/03 13:16:31;;;;;;;0.20;0.20;;;21.80;86.20;;;;;;5050833;28;20826;-87
2022/06/03 13:19:20;;;;;;;0.43;0.30;;;21.80;85.50;;;;;;5058920;28;20082;-84
2022/06/03 13:22:00;;;;;;;0.15;0.15;;;21.70;86.60;;;;;;5063938;28;20040;-89
2022/06/03 13:24:28;;;;;;;0.73;0.52;;;21.80;86.80;;;;;;5086507;28;20044;-86
2022/06/03 13:27:11;;;;;;;0.10;0.10;;;21.70;85.50;;;;;;5087023;28;20076;-86
2022/06/03 13:29:51;;;;;;;0.30;0.30;;;21.70;86.80;;;;;;5087028;28;20045;-85
2022/06/03 13:32:52;;;;;;;0.32;0.22;;;21.80;85.70;;;;;;5086459;28;20041;-91
2022/06/03 13:35:24;;;;;;;0.22;0.20;;;21.80;84.40;;;;;;5097430;28;20045;-93
2022/06/03 13:37:59;;;;;;;0.20;0.20;;;21.80;86.40;;;;;;5103993;28;20037;-86
2022/06/03 13:40:26;;;;;;;0.20;0.20;;;21.60;83.90;;;;;;5068081;28;20128;-86
2022/06/03 13:42:59;;;;;;;0.35;0.20;;;21.70;85.50;;;;;;5066708;28;20129;-92
2022/06/03 13:45:46;;;;;;;0.10;0.10;;;21.80;84.30;;;;;;5066154;28;20084;-86
2022/06/03 13:48:27;;;;;;;0.47;0.40;;;21.90;85.20;;;;;;5072592;28;20040;-88
2022/06/03 13:50:53;;;;;;;0.38;0.38;;;21.80;84.70;;;;;;5070617;28;20036;-93
2022/06/03 13:53:30;;;;;;;0.15;0.15;;;21.80;85.40;;;;;;5053733;28;20047;-92
2022/06/03 13:56:08;;;;;;;0.05;0.03;;;21.90;84.90;;;;;;5070775;28;20128;-86
2022/06/03 13:58:43;;;;;;;0.13;0.13;;;21.80;83.30;;;;;;5069946;28;20044;-91
2022/06/03 14:01:34;;;;;;;0.20;0.20;;;21.70;83.70;;;;;;5070109;28;20045;-85
2022/06/03 14:04:17;;;;;;;0.10;0.10;;;21.70;83.20;;;;;;5070293;28;20033;-90
2022/06/03 14:06:58;;;;;;;0.17;0.17;;;21.70;81.80;;;;;;5070159;28;20047;-86
2022/06/03 14:09:48;;;;;;;0.20;0.20;;;21.60;81.60;;;;;;5069773;28;20028;-91
2022/06/03 14:12:33;;;;;;;0.10;0.10;;;21.70;82.10;;;;;;5070059;28;20033;-86
2022/06/03 14:15:38;;;;;;;0.10;0.10;;;21.70;83.30;;;;;;5069928;28;20047;-86
2022/06/03 14:18:05;;;;;;;0.20;0.20;;;21.60;83.00;;;;;;5069469;28;20041;-85
2022/06/03 14:20:43;;;;;;;0.20;0.20;;;21.50;82.60;;;;;;5053673;28;20118;-85
2022/06/03 14:23:37;;;;;;;0.10;0.10;;;21.50;82.30;;;;;;5069912;28;20154;-85
2022/06/03 14:26:14;;;;;;;0.10;0.10;;;21.40;82.70;;;;;;5069936;28;20047;-92
2022/06/03 14:28:57;;;;;;;0.45;0.30;;;21.40;83.70;;;;;;5086105;28;20116;-91
2022/06/03 14:31:32;;;;;;;0.40;0.30;;;21.00;85.10;;;;;;5073144;28;20406;-89
2022/06/03 14:34:11;;;;;;;0.20;0.20;;;21.20;86.50;;;;;;5089900;28;20059;-88
2022/06/03 14:36:38;;;;;;;0.20;0.20;;;21.00;85.30;;;;;;5049896;28;20590;-88